createdAt,value
2024-02-18T00:00:21.958Z,10.00
2024-02-18T00:02:50.136Z,10.00
2024-02-18T00:05:18.325Z,10.00
2024-02-18T00:07:46.457Z,9.90
2024-02-18T00:10:15.828Z,9.90
2024-02-18T00:12:43.988Z,9.90
2024-02-18T00:15:12.378Z,10.00
2024-02-18T00:17:41.280Z,10.00
2024-02-18T00:20:12.357Z,10.00
2024-02-18T00:22:40.501Z,10.00
2024-02-18T00:25:09.092Z,10.00
2024-02-18T00:27:39.604Z,9.90
2024-02-18T00:30:08.742Z,9.90
2024-02-18T00:32:37.032Z,9.90
2024-02-18T00:35:05.637Z,10.00
2024-02-18T00:37:34.040Z,10.00
2024-02-18T00:40:02.179Z,10.00
2024-02-18T00:42:30.232Z,10.00
2024-02-18T00:44:59.739Z,10.00
2024-02-18T00:47:27.892Z,10.00
2024-02-18T00:49:56.145Z,10.00
2024-02-18T00:52:24.406Z,10.00
2024-02-18T00:54:52.502Z,10.10
2024-02-18T00:57:20.743Z,10.10
2024-02-18T00:59:49.543Z,10.10
2024-02-18T01:02:19.577Z,10.20
2024-02-18T01:04:48.484Z,10.10
2024-02-18T01:07:16.961Z,10.10
2024-02-18T01:09:47.178Z,10.10
2024-02-18T01:12:15.768Z,10.00
2024-02-18T01:14:45.359Z,10.00
2024-02-18T01:17:13.737Z,10.00
2024-02-18T01:19:44.661Z,9.90
2024-02-18T01:22:13.073Z,9.90
2024-02-18T01:24:41.667Z,10.00
2024-02-18T01:27:10.020Z,10.00
2024-02-18T01:29:39.895Z,10.00
2024-02-18T01:32:09.756Z,10.00
2024-02-18T01:34:38.447Z,10.00
2024-02-18T01:37:08.091Z,10.00
2024-02-18T01:39:36.747Z,10.10
2024-02-18T01:42:05.255Z,10.00
2024-02-18T01:44:34.858Z,10.00
2024-02-18T01:47:02.817Z,10.10
2024-02-18T01:49:33.811Z,10.00
2024-02-18T01:52:02.597Z,10.00
2024-02-18T01:54:34.802Z,10.00
2024-02-18T01:57:07.746Z,10.00
2024-02-18T01:59:36.877Z,10.00
2024-02-18T02:02:05.714Z,10.10
2024-02-18T02:04:34.978Z,10.10
2024-02-18T02:07:04.199Z,10.10
2024-02-18T02:09:33.874Z,10.10
2024-02-18T02:12:02.277Z,10.10
2024-02-18T02:14:30.502Z,10.10
2024-02-18T02:16:59.060Z,10.10
2024-02-18T02:19:27.966Z,10.10
2024-02-18T02:21:56.437Z,10.10
2024-02-18T02:24:24.916Z,10.10
2024-02-18T02:26:58.248Z,10.00
2024-02-18T02:29:27.929Z,10.00
2024-02-18T02:31:58.683Z,10.00
2024-02-18T02:34:27.494Z,10.00
2024-02-18T02:36:55.933Z,10.00
2024-02-18T02:39:24.263Z,10.00
2024-02-18T02:41:52.334Z,10.00
2024-02-18T02:44:20.558Z,10.00
2024-02-18T02:46:50.417Z,10.00
2024-02-18T02:49:18.757Z,10.00
2024-02-18T02:51:47.230Z,10.00
2024-02-18T02:54:15.782Z,10.00
2024-02-18T02:56:44.330Z,10.00
2024-02-18T02:59:12.593Z,10.00
2024-02-18T03:01:40.739Z,9.90
2024-02-18T03:04:13.486Z,9.80
2024-02-18T03:06:41.892Z,9.90
2024-02-18T03:09:10.046Z,9.80
2024-02-18T03:11:38.540Z,9.80
2024-02-18T03:14:06.594Z,9.80
2024-02-18T03:16:34.832Z,9.70
2024-02-18T03:19:03.210Z,9.70
2024-02-18T03:21:32.991Z,9.70
2024-02-18T03:24:02.471Z,9.60
2024-02-18T03:26:32.499Z,9.50
2024-02-18T03:29:00.765Z,9.50
2024-02-18T03:31:28.843Z,9.30
2024-02-18T03:33:57.715Z,9.30
2024-02-18T03:36:26.426Z,9.20
2024-02-18T03:38:55.960Z,9.20
2024-02-18T03:41:24.615Z,9.10
2024-02-18T03:43:52.742Z,9.00
2024-02-18T03:46:20.810Z,9.00
2024-02-18T03:48:48.995Z,8.90
2024-02-18T03:51:17.670Z,8.80
2024-02-18T03:53:45.670Z,8.70
2024-02-18T03:56:15.179Z,8.70
2024-02-18T03:58:43.301Z,8.70
2024-02-18T04:01:12.307Z,8.60
2024-02-18T04:03:41.072Z,8.60
2024-02-18T04:06:10.046Z,8.60
2024-02-18T04:08:38.356Z,8.50
2024-02-18T04:11:06.641Z,8.50
2024-02-18T04:13:36.176Z,8.50
2024-02-18T04:16:05.349Z,8.40
2024-02-18T04:18:33.834Z,8.40
2024-02-18T04:21:02.156Z,8.40
2024-02-18T04:23:30.112Z,8.30
2024-02-18T04:25:58.174Z,8.30
2024-02-18T04:28:26.431Z,8.20
2024-02-18T04:30:56.225Z,8.20
2024-02-18T04:33:24.473Z,8.20
2024-02-18T04:35:52.509Z,8.20
2024-02-18T04:38:21.325Z,8.10
2024-02-18T04:40:49.286Z,8.10
2024-02-18T04:43:17.365Z,8.10
2024-02-18T04:45:47.209Z,8.10
2024-02-18T04:48:17.620Z,8.10
2024-02-18T04:50:45.884Z,8.00
2024-02-18T04:53:14.281Z,8.00
2024-02-18T04:55:42.568Z,8.00
2024-02-18T04:58:13.752Z,8.00
2024-02-18T05:00:42.159Z,8.00
2024-02-18T05:03:10.555Z,8.00
2024-02-18T05:05:40.359Z,8.00
2024-02-18T05:08:08.459Z,8.00
2024-02-18T05:10:38.380Z,7.90
2024-02-18T05:13:06.688Z,7.90
2024-02-18T05:15:35.017Z,7.90
2024-02-18T05:18:03.055Z,7.90
2024-02-18T05:20:31.014Z,7.80
2024-02-18T05:23:00.696Z,7.80
2024-02-18T05:25:28.674Z,7.80
2024-02-18T05:27:56.666Z,7.80
2024-02-18T05:30:24.942Z,7.80
2024-02-18T05:32:53.901Z,7.80
2024-02-18T05:35:21.963Z,7.80
2024-02-18T05:37:50.077Z,7.80
2024-02-18T05:40:19.561Z,7.80
2024-02-18T05:42:47.886Z,7.80
2024-02-18T05:45:21.590Z,7.80
2024-02-18T05:47:50.145Z,7.80
2024-02-18T05:50:18.159Z,7.70
2024-02-18T05:52:46.499Z,7.70
2024-02-18T05:55:14.815Z,7.70
2024-02-18T05:57:44.607Z,7.70
2024-02-18T06:00:14.506Z,7.70
2024-02-18T06:02:43.000Z,7.70
2024-02-18T06:05:13.192Z,7.70
2024-02-18T06:07:41.761Z,7.70
2024-02-18T06:10:10.862Z,7.70
2024-02-18T06:12:39.716Z,7.70
2024-02-18T06:15:10.543Z,7.70
2024-02-18T06:17:39.242Z,7.70
2024-02-18T06:20:08.792Z,7.70
2024-02-18T06:22:36.951Z,7.70
2024-02-18T06:25:05.807Z,7.70
2024-02-18T06:27:34.167Z,7.70
2024-02-18T06:30:02.420Z,7.80
2024-02-18T06:32:32.358Z,7.70
2024-02-18T06:35:00.674Z,7.80
2024-02-18T06:37:28.958Z,7.80
2024-02-18T06:39:57.008Z,7.80
2024-02-18T06:42:25.304Z,7.80
2024-02-18T06:44:53.674Z,7.80
2024-02-18T06:47:21.730Z,7.90
2024-02-18T06:49:51.601Z,7.90
2024-02-18T06:52:20.365Z,7.90
2024-02-18T06:54:48.632Z,7.90
2024-02-18T06:57:16.770Z,8.00
2024-02-18T06:59:46.622Z,8.00
2024-02-18T07:02:15.063Z,8.00
2024-02-18T07:04:43.342Z,8.10
2024-02-18T07:07:13.233Z,8.10
2024-02-18T07:09:43.869Z,8.10
2024-02-18T07:12:12.073Z,8.20
2024-02-18T07:14:40.204Z,8.30
2024-02-18T07:17:08.316Z,8.30
2024-02-18T07:19:36.738Z,8.30
2024-02-18T07:22:05.689Z,8.40
2024-02-18T07:24:35.527Z,8.40
2024-02-18T07:27:04.278Z,8.40
2024-02-18T07:29:32.349Z,8.40
2024-02-18T07:32:00.545Z,8.40
2024-02-18T07:34:28.876Z,8.40
2024-02-18T07:36:57.224Z,8.40
2024-02-18T07:39:25.910Z,8.40
2024-02-18T07:41:56.272Z,8.40
2024-02-18T07:44:24.236Z,8.40
2024-02-18T07:46:55.300Z,8.40
2024-02-18T07:49:24.415Z,8.50
2024-02-18T07:51:52.851Z,8.60
2024-02-18T07:54:21.042Z,8.70
2024-02-18T07:56:50.292Z,8.80
2024-02-18T07:59:22.826Z,8.90
2024-02-18T08:01:52.195Z,9.10
2024-02-18T08:04:20.303Z,9.20
2024-02-18T08:06:49.749Z,9.30
2024-02-18T08:09:18.077Z,9.30
2024-02-18T08:11:46.884Z,9.40
2024-02-18T08:14:15.243Z,9.40
2024-02-18T08:16:44.930Z,9.50
2024-02-18T08:19:13.071Z,9.50
2024-02-18T08:21:41.367Z,9.50
2024-02-18T08:24:11.491Z,9.50
2024-02-18T08:26:39.489Z,9.50
2024-02-18T08:29:08.600Z,9.50
2024-02-18T08:31:36.974Z,9.50
2024-02-18T08:34:06.687Z,9.50
2024-02-18T08:36:34.736Z,9.50
2024-02-18T08:39:03.129Z,9.60
2024-02-18T08:41:31.724Z,9.60
2024-02-18T08:44:02.153Z,9.50
2024-02-18T08:46:31.503Z,9.60
2024-02-18T08:49:00.951Z,9.50
2024-02-18T08:51:30.392Z,9.50
2024-02-18T08:53:58.505Z,9.60
2024-02-18T08:56:26.446Z,9.60
2024-02-18T08:58:54.989Z,9.60
2024-02-18T09:01:23.093Z,9.60
2024-02-18T09:03:51.506Z,9.60
2024-02-18T09:06:19.879Z,9.70
2024-02-18T09:08:49.481Z,9.90
2024-02-18T09:11:17.682Z,10.00
2024-02-18T09:13:45.786Z,10.00
2024-02-18T09:16:14.064Z,10.10
2024-02-18T09:18:42.348Z,10.20
2024-02-18T09:21:10.511Z,10.20
2024-02-18T09:23:38.447Z,10.20
2024-02-18T09:26:10.523Z,10.30
2024-02-18T09:28:39.002Z,10.30
2024-02-18T09:31:09.679Z,10.40
2024-02-18T09:33:37.923Z,10.40
2024-02-18T09:36:06.664Z,10.30
2024-02-18T09:38:34.618Z,10.30
2024-02-18T09:41:04.763Z,10.40
2024-02-18T09:43:40.030Z,10.50
2024-02-18T09:46:10.040Z,10.50
2024-02-18T09:48:39.426Z,10.60
2024-02-18T09:51:08.569Z,10.70
2024-02-18T09:53:36.907Z,10.70
2024-02-18T09:56:06.482Z,10.70
2024-02-18T09:58:36.154Z,10.80
2024-02-18T10:01:04.684Z,10.80
2024-02-18T10:03:33.064Z,10.80
2024-02-18T10:06:01.283Z,10.90
2024-02-18T10:08:29.444Z,11.00
2024-02-18T10:10:57.799Z,11.10
2024-02-18T10:13:26.376Z,11.20
2024-02-18T10:15:56.000Z,11.20
2024-02-18T10:18:24.559Z,11.30
2024-02-18T10:20:55.442Z,11.30
2024-02-18T10:23:23.718Z,11.30
2024-02-18T10:25:52.025Z,11.40
2024-02-18T10:28:21.321Z,11.40
2024-02-18T10:30:50.673Z,11.40
2024-02-18T10:33:22.929Z,11.50
2024-02-18T10:35:54.583Z,11.50
2024-02-18T10:38:25.879Z,11.60
2024-02-18T10:41:03.221Z,11.70
2024-02-18T10:43:32.708Z,11.70
2024-02-18T10:46:04.643Z,11.70
2024-02-18T10:48:38.651Z,11.70
2024-02-18T10:51:08.430Z,11.80
2024-02-18T10:53:42.053Z,11.90
2024-02-18T10:56:14.558Z,12.00
2024-02-18T10:58:58.991Z,12.10
2024-02-18T11:01:30.009Z,12.10
2024-02-18T11:04:07.944Z,12.10
2024-02-18T11:06:38.349Z,12.20
2024-02-18T11:09:09.513Z,12.20
2024-02-18T11:11:39.276Z,12.30
2024-02-18T11:14:10.135Z,12.30
2024-02-18T11:16:40.144Z,12.30
2024-02-18T11:19:11.422Z,12.40
2024-02-18T11:21:40.306Z,12.40
2024-02-18T11:24:09.114Z,12.60
2024-02-18T11:26:37.637Z,12.70
2024-02-18T11:29:06.084Z,12.90
2024-02-18T11:31:34.878Z,12.90
2024-02-18T11:34:07.023Z,12.90
2024-02-18T11:36:36.654Z,12.90
2024-02-18T11:39:08.044Z,13.00
2024-02-18T11:41:38.393Z,13.10
2024-02-18T11:44:10.508Z,13.10
2024-02-18T11:46:41.198Z,13.20
2024-02-18T11:49:10.217Z,13.20
2024-02-18T11:51:39.842Z,13.20
2024-02-18T11:54:08.229Z,13.20
2024-02-18T11:56:36.254Z,13.20
2024-02-18T11:59:04.913Z,13.20
2024-02-18T12:01:37.750Z,13.20
2024-02-18T12:04:06.820Z,13.20
2024-02-18T12:06:36.886Z,13.20
2024-02-18T12:09:15.999Z,13.30
2024-02-18T12:11:47.804Z,13.30
2024-02-18T12:14:18.037Z,13.40
2024-02-18T12:16:47.119Z,13.40
2024-02-18T12:19:15.545Z,13.50
2024-02-18T12:21:43.990Z,13.60
2024-02-18T12:24:13.491Z,13.70
2024-02-18T12:26:41.419Z,13.80
2024-02-18T12:29:09.453Z,13.90
2024-02-18T12:31:39.384Z,14.00
2024-02-18T12:34:07.657Z,14.00
2024-02-18T12:36:36.506Z,14.00
2024-02-18T12:39:08.750Z,14.00
2024-02-18T12:41:38.494Z,14.00
2024-02-18T12:46:39.161Z,13.90
2024-02-18T12:49:07.938Z,13.80
2024-02-18T12:51:37.809Z,13.80
2024-02-18T12:54:05.810Z,13.80
2024-02-18T12:56:34.679Z,13.80
2024-02-18T12:59:06.866Z,13.80
2024-02-18T13:01:35.440Z,13.80
2024-02-18T13:04:10.501Z,13.80
2024-02-18T13:06:40.858Z,13.90
2024-02-18T13:09:09.564Z,13.80
2024-02-18T13:11:38.154Z,13.70
2024-02-18T13:14:07.441Z,13.70
2024-02-18T13:16:35.985Z,13.70
2024-02-18T13:19:04.828Z,13.70
2024-02-18T13:21:33.318Z,13.70
2024-02-18T13:24:01.357Z,13.60
2024-02-18T13:26:30.354Z,13.60
2024-02-18T13:28:58.475Z,13.60
2024-02-18T13:31:29.685Z,13.60
2024-02-18T13:33:57.813Z,13.70
2024-02-18T13:36:25.895Z,13.70
2024-02-18T13:38:57.385Z,13.70
2024-02-18T13:41:32.814Z,13.70
2024-02-18T13:44:01.048Z,13.70
2024-02-18T13:46:31.367Z,13.70
2024-02-18T13:48:59.787Z,13.70
2024-02-18T13:51:28.127Z,13.60
2024-02-18T13:53:56.066Z,13.60
2024-02-18T13:56:24.267Z,13.60
2024-02-18T13:58:55.234Z,13.70
2024-02-18T14:01:23.214Z,13.70
2024-02-18T14:03:52.670Z,13.70
2024-02-18T14:06:20.883Z,13.60
2024-02-18T14:08:50.307Z,13.60
2024-02-18T14:11:19.215Z,13.60
2024-02-18T14:13:47.409Z,13.50
2024-02-18T14:16:20.073Z,13.50
2024-02-18T14:18:48.640Z,13.40
2024-02-18T14:21:18.071Z,13.40
2024-02-18T14:23:46.737Z,13.40
2024-02-18T14:26:16.075Z,13.40
2024-02-18T14:28:46.739Z,13.40
2024-02-18T14:31:14.705Z,13.40
2024-02-18T14:33:42.946Z,13.40
2024-02-18T14:36:13.269Z,13.30
2024-02-18T14:38:55.265Z,13.30
2024-02-18T14:41:25.879Z,13.20
2024-02-18T14:43:54.242Z,13.30
2024-02-18T14:46:22.376Z,13.30
2024-02-18T14:48:54.554Z,13.20
2024-02-18T14:51:22.659Z,13.20
2024-02-18T14:53:54.572Z,13.20
2024-02-18T14:56:22.613Z,13.10
2024-02-18T14:58:50.766Z,13.10
2024-02-18T15:01:20.034Z,13.00
2024-02-18T15:03:48.610Z,13.00
2024-02-18T15:06:17.443Z,13.00
2024-02-18T15:08:45.814Z,13.00
2024-02-18T15:11:19.454Z,13.00
2024-02-18T15:13:50.021Z,12.90
2024-02-18T15:16:21.168Z,12.90
2024-02-18T15:18:51.812Z,12.90
2024-02-18T15:21:21.039Z,12.80
2024-02-18T15:23:49.311Z,12.80
2024-02-18T15:26:19.984Z,12.80
2024-02-18T15:28:48.034Z,12.70
2024-02-18T15:31:16.098Z,12.70
2024-02-18T15:33:44.496Z,12.60
2024-02-18T15:36:14.007Z,12.60
2024-02-18T15:38:43.081Z,12.60
2024-02-18T15:41:22.951Z,12.50
2024-02-18T15:43:54.284Z,12.50
2024-02-18T15:46:30.484Z,12.50
2024-02-18T15:48:58.544Z,12.40
2024-02-18T15:51:29.739Z,12.40
2024-02-18T15:53:58.569Z,12.30
2024-02-18T15:56:28.204Z,12.30
2024-02-18T15:58:58.838Z,12.20
2024-02-18T16:01:27.622Z,12.20
2024-02-18T16:03:57.588Z,12.20
2024-02-18T16:06:35.550Z,12.20
2024-02-18T16:09:04.137Z,12.10
2024-02-18T16:11:34.779Z,12.10
2024-02-18T16:14:02.946Z,12.10
2024-02-18T16:16:32.027Z,12.00
2024-02-18T16:19:00.346Z,12.00
2024-02-18T16:21:28.742Z,12.00
2024-02-18T16:24:01.048Z,12.00
2024-02-18T16:26:30.270Z,12.00
2024-02-18T16:28:59.870Z,12.00
2024-02-18T16:31:29.457Z,11.90
2024-02-18T16:33:57.613Z,11.90
2024-02-18T16:36:27.465Z,11.90
2024-02-18T16:38:59.180Z,11.90
2024-02-18T16:41:27.832Z,11.90
2024-02-18T16:43:55.877Z,11.80
2024-02-18T16:46:28.343Z,11.80
2024-02-18T16:48:56.326Z,11.80
2024-02-18T16:51:27.110Z,11.70
2024-02-18T16:53:57.090Z,11.70
2024-02-18T16:56:26.661Z,11.70
2024-02-18T16:58:55.100Z,11.70
2024-02-18T17:01:24.692Z,11.70
2024-02-18T17:03:53.501Z,11.70
2024-02-18T17:06:22.107Z,11.60
2024-02-18T17:08:50.405Z,11.60
2024-02-18T17:11:21.046Z,11.60
2024-02-18T17:13:53.572Z,11.60
2024-02-18T17:16:21.622Z,11.60
2024-02-18T17:18:52.175Z,11.60
2024-02-18T17:21:21.170Z,11.60
2024-02-18T17:23:51.968Z,11.60
2024-02-18T17:26:19.882Z,11.60
2024-02-18T17:28:51.143Z,11.50
2024-02-18T17:31:22.564Z,11.60
2024-02-18T17:33:56.474Z,11.50
2024-02-18T17:36:26.875Z,11.50
2024-02-18T17:38:55.145Z,11.60
2024-02-18T17:41:23.223Z,11.50
2024-02-18T17:43:51.751Z,11.50
2024-02-18T17:46:21.537Z,11.50
2024-02-18T17:48:49.557Z,11.50
2024-02-18T17:51:19.284Z,11.50
2024-02-18T17:53:47.865Z,11.50
2024-02-18T17:56:16.061Z,11.50
2024-02-18T17:58:44.397Z,11.50
2024-02-18T18:01:12.962Z,11.50
2024-02-18T18:03:42.908Z,11.50
2024-02-18T18:06:12.671Z,11.40
2024-02-18T18:08:44.074Z,11.40
2024-02-18T18:11:13.109Z,11.40
2024-02-18T18:13:43.468Z,11.40
2024-02-18T18:16:15.405Z,11.40
2024-02-18T18:18:44.509Z,11.40
2024-02-18T18:21:12.877Z,11.30
2024-02-18T18:23:42.568Z,11.40
2024-02-18T18:26:11.940Z,11.40
2024-02-18T18:28:40.155Z,11.40
2024-02-18T18:31:08.152Z,11.40
2024-02-18T18:33:37.284Z,11.40
2024-02-18T18:36:08.896Z,11.40
2024-02-18T18:38:37.503Z,11.40
2024-02-18T18:41:08.319Z,11.40
2024-02-18T18:43:36.579Z,11.40
2024-02-18T18:46:04.810Z,11.40
2024-02-18T18:48:33.310Z,11.40
2024-02-18T18:51:01.707Z,11.40
2024-02-18T18:53:30.629Z,11.40
2024-02-18T18:56:00.318Z,11.50
2024-02-18T18:58:29.852Z,11.50
2024-02-18T19:00:59.089Z,11.50
2024-02-18T19:03:29.936Z,11.50
2024-02-18T19:05:58.037Z,11.50
2024-02-18T19:08:26.400Z,11.50
2024-02-18T19:10:56.810Z,11.60
2024-02-18T19:15:59.811Z,11.60
2024-02-18T19:18:27.902Z,11.50
2024-02-18T19:20:56.570Z,11.50
2024-02-18T19:23:27.623Z,11.50
2024-02-18T19:25:55.945Z,11.60
2024-02-18T19:28:26.173Z,11.60
2024-02-18T19:30:55.971Z,11.60
2024-02-18T19:33:27.783Z,11.60
2024-02-18T19:35:57.841Z,11.60
2024-02-18T19:38:27.485Z,11.60
2024-02-18T19:40:56.207Z,11.60
2024-02-18T19:43:24.902Z,11.60
2024-02-18T19:45:55.146Z,11.60
2024-02-18T19:48:25.575Z,11.60
2024-02-18T19:50:56.196Z,11.70
2024-02-18T19:53:25.459Z,11.70
2024-02-18T19:55:53.787Z,11.70
2024-02-18T19:58:21.808Z,11.60
2024-02-18T20:00:50.516Z,11.70
2024-02-18T20:03:18.573Z,11.60
2024-02-18T20:05:48.769Z,11.60
2024-02-18T20:08:18.646Z,11.60
2024-02-18T20:10:48.511Z,11.70
2024-02-18T20:13:17.954Z,11.70
2024-02-18T20:15:49.313Z,11.70
2024-02-18T20:18:19.484Z,11.70
2024-02-18T20:20:50.329Z,11.60
2024-02-18T20:23:18.858Z,11.70
2024-02-18T20:25:46.911Z,11.60
2024-02-18T20:28:15.190Z,11.60
2024-02-18T20:30:44.709Z,11.60
2024-02-18T20:33:16.708Z,11.70
2024-02-18T20:35:44.802Z,11.70
2024-02-18T20:38:15.098Z,11.70
2024-02-18T20:40:45.063Z,11.70
2024-02-18T20:43:14.358Z,11.60
2024-02-18T20:45:43.116Z,11.60
2024-02-18T20:48:13.463Z,11.60
2024-02-18T20:50:41.615Z,11.50
2024-02-18T20:53:11.410Z,11.50
2024-02-18T20:58:36.211Z,11.60
2024-02-18T21:01:06.175Z,11.50
2024-02-18T21:03:34.576Z,11.50
2024-02-18T21:06:02.639Z,11.50
2024-02-18T21:08:31.268Z,11.40
2024-02-18T21:11:00.863Z,11.40
2024-02-18T21:13:28.972Z,11.40
2024-02-18T21:15:57.297Z,11.40
2024-02-18T21:18:25.853Z,11.30
2024-02-18T21:20:56.760Z,11.40
2024-02-18T21:23:24.897Z,11.30
2024-02-18T21:25:53.799Z,11.30
2024-02-18T21:28:24.035Z,11.30
2024-02-18T21:30:52.117Z,11.30
2024-02-18T21:33:22.157Z,11.30
2024-02-18T21:35:50.588Z,11.20
2024-02-18T21:38:18.888Z,11.30
2024-02-18T21:40:47.349Z,11.30
2024-02-18T21:43:15.648Z,11.30
2024-02-18T21:45:46.448Z,11.20
2024-02-18T21:48:14.839Z,11.20
2024-02-18T21:50:45.950Z,11.20
2024-02-18T21:53:14.952Z,11.20
2024-02-18T21:55:43.359Z,11.20
2024-02-18T21:58:12.110Z,11.20
2024-02-18T22:00:40.451Z,11.20
2024-02-18T22:03:11.187Z,11.20
2024-02-18T22:05:39.474Z,11.20
2024-02-18T22:08:08.400Z,11.20
2024-02-18T22:10:37.243Z,11.20
2024-02-18T22:13:05.858Z,11.10
2024-02-18T22:15:34.121Z,11.10
2024-02-18T22:18:02.524Z,11.10
2024-02-18T22:20:32.789Z,11.00
2024-02-18T22:23:01.434Z,11.00
2024-02-18T22:25:29.877Z,11.00
2024-02-18T22:27:58.618Z,11.00
2024-02-18T22:30:27.368Z,11.10
2024-02-18T22:32:55.630Z,11.00
2024-02-18T22:35:24.028Z,11.00
2024-02-18T22:37:53.857Z,11.00
2024-02-18T22:40:22.660Z,11.00
2024-02-18T22:42:51.532Z,11.10
2024-02-18T22:45:20.291Z,11.00
2024-02-18T22:47:48.597Z,11.10
2024-02-18T22:50:16.847Z,11.10
2024-02-18T22:52:45.006Z,11.10
2024-02-18T22:55:14.574Z,11.10
2024-02-18T22:57:43.146Z,11.10
2024-02-18T23:00:18.085Z,11.10
2024-02-18T23:02:46.925Z,11.00
2024-02-18T23:05:18.684Z,11.10
2024-02-18T23:07:48.303Z,11.10
2024-02-18T23:10:20.134Z,11.10
2024-02-18T23:12:48.847Z,11.20
2024-02-18T23:15:18.516Z,11.20
2024-02-18T23:17:47.512Z,11.10
2024-02-18T23:20:15.636Z,11.10
2024-02-18T23:22:43.695Z,11.10
2024-02-18T23:25:13.458Z,11.10
2024-02-18T23:27:44.152Z,11.10
2024-02-18T23:30:12.875Z,11.10
2024-02-18T23:32:41.702Z,11.00
2024-02-18T23:35:11.014Z,11.00
2024-02-18T23:37:44.416Z,11.00
2024-02-18T23:40:15.354Z,11.00
2024-02-18T23:42:45.710Z,11.00
2024-02-18T23:45:16.074Z,11.00
2024-02-18T23:47:44.326Z,11.00
2024-02-18T23:50:12.597Z,11.00
2024-02-18T23:52:41.419Z,11.00
2024-02-18T23:55:11.745Z,11.00
2024-02-18T23:57:39.953Z,10.90
